Loving, Texas
Current Conditions -  °F | °C
As of 2:50 PM on Sunday 23 Nov 2014 (Local Time) from KRPH Reporting Station
Clear Clear  
Wind Chill: 69°   Ceiling: Unl
Heat Index: 69°   Visibility: 10mi
Dew Point: 43°   Wind: 21mph
Humidity: 39%   Direction: 290°WNW
Pressure: 29.48"   Gusts: 30mph
Location:  33.26°N, 98.51°W
Report Text: KRPH 232050Z AUTO 29018G26KT 10SM CLR 21/06 A2948 RMK AO2 T02050061
Loading
Personal Weather Stations






























Interactive Weather Map New forecast layout! Learn more

10-Day Weather Forecast

Advertisements
Track Severe Weather on mobile